Airfield :
LOGIN :

Register | Disclaimer

   EN    FR    IT 

 










Legend :    VFR   Marginal VFR   IFR   Intensive IFR   Very Intensive IFR
Visi :
Ceiling :
>= 8 km
>= 3000ft
5 to 8 km
1000 to 3000 ft
1500m to 5 km
500 to 1000 ft
800 to 1500m
200 to 500 ft
< 800m
< 200 ft
Symbols :   Thunderstorms  Fog  Heavy snow  Heavy precipitations  Wind > 20 kt
SIGMETs :     Misc.  Thunderstorms  Icing  Turbulence  Mountain Waves  Volcanic Ashes






- Airport Elevation : 53 ft
- IATA code : HAM


EDDH - Hamburg

CURRENT METAR :
  • 182220Z 21016KT 9999 FEW019 SCT026 06/03 Q1011 TEMPO 24015G25KT

EXPIRED METARs :
  • 182150Z 22015KT 9999 -RA FEW017 BKN028 06/04 Q1012 TEMPO 24015G25KT
  • 182120Z 22015KT 9999 FEW017 SCT021 BKN034 06/03 Q1012 TEMPO 24015G25KT
  • 182050Z 22015KT 9999 -RA FEW014 SCT018 BKN028 06/04 Q1013 TEMPO 24015G25KT
  • 182020Z 22013KT 7000 -RA FEW012 BKN016 06/04 Q1013 TEMPO 24015G25KT
  • 181950Z 22013KT 9000 -RA FEW013 BKN017 06/04 Q1013 TEMPO 24015G25KT

TAF TAF EDDH
Valid from the 18 at 18:00 until the 20 at 00:00 UTC


181700Z 1818/1924 23013KT 9999 BKN025
PROB30
TEMPO 1819/1822 RA
TEMPO 1820/1904 23015G25KT
TEMPO 1902/1905 RA BKN012
BECMG 1908/1910 27015G25KT
PROB30
TEMPO 1908/1915 SHRA BKN014CB
TEMPO 1910/1916 28020G30KT
BECMG 1916/1918 25009KT



MET'MAP, your aeronautical weather chart ! - Copyright ORBIFLY December 2007 - Disclaimer

ORBIFLY MET'MAP TEAM :

Programming & Development : Alexandra Zaïnal
Concept & original design : Baudouin d'Aumeries
Assistance for programming : Marc-Olivier Méhu
Technical & hardware support : Manuel Goepfert

Contact : metmap@orbifly.com




SOURCES & CREDITS :

   NOAA